Aviation Digital Data Service (ADDS)

Output produced by METARs form (0250 UTC 23 February 2017)
found at http://aviationweather.gov/adds/metars/
 
KLCH 230153Z 23004KT 10SM CLR 18/16 A2984 RMK AO2 SLP112 T01780161 $